Mooreland, Indiana
Current Conditions -  °F | °C
As of 6:53 PM on Friday 21 Nov 2014 (Local Time) from KMIE Reporting Station
Clear Clear  
Wind Chill: 19°   Ceiling: Unl
Heat Index: 26°   Visibility: 10mi
Dew Point: 11°   Wind: 6mph
Humidity: 53%   Direction: 150°SSE
Pressure: 30.4"   Gusts: NA
Location:  40°N, 85.25°W
Report Text: KMIE 212353Z 15005KT 10SM CLR M03/M12 A3040 RMK AO2 SLP305 T10331117 11006 21033 58009
Loading
Personal Weather Stations






























Interactive Weather Map New forecast layout! Learn more

10-Day Weather Forecast

Advertisements
Track Severe Weather on mobile